createdAt,value
2022-08-10T00:04:49.578Z,100720.69
2022-08-10T00:09:51.505Z,100717.34
2022-08-10T00:14:53.225Z,100721.41
2022-08-10T00:20:03.180Z,100715.97
2022-08-10T00:25:10.610Z,100721.25
2022-08-10T00:30:12.832Z,100716.25
2022-08-10T00:35:14.490Z,100715.34
2022-08-10T00:40:16.169Z,100716.81
2022-08-10T00:45:17.826Z,100714.91
2022-08-10T00:50:19.641Z,100720.81
2022-08-10T00:55:21.631Z,100718.47
2022-08-10T01:00:24.542Z,100721.59
2022-08-10T01:05:26.813Z,100717.94
2022-08-10T01:10:39.790Z,100721.59
2022-08-10T01:16:18.338Z,100711.22
2022-08-10T01:22:04.513Z,100705.25
2022-08-10T01:27:47.407Z,100711.78
2022-08-10T01:33:11.996Z,100711.66
2022-08-10T01:38:23.721Z,100716.28
2022-08-10T01:43:28.033Z,100712.56
2022-08-10T01:48:36.636Z,100714.44
2022-08-10T01:54:01.461Z,100714.50
2022-08-10T01:59:09.306Z,100716.38
2022-08-10T02:04:14.207Z,100714.44
2022-08-10T02:09:21.197Z,100717.53
2022-08-10T02:14:33.314Z,100717.06
2022-08-10T02:19:39.509Z,100726.59
2022-08-10T02:24:43.028Z,100727.28
2022-08-10T02:29:49.039Z,100724.38
2022-08-10T02:34:52.530Z,100726.59
2022-08-10T02:39:54.684Z,100721.81
2022-08-10T02:45:29.699Z,100712.91
2022-08-10T02:50:38.685Z,100715.63
2022-08-10T02:55:49.861Z,100727.78
2022-08-10T03:00:56.773Z,100719.00
2022-08-10T03:06:07.363Z,100719.53
2022-08-10T03:12:37.211Z,100726.41
2022-08-10T03:16:45.764Z,100722.53
2022-08-10T03:21:50.143Z,100723.25
2022-08-10T03:26:53.878Z,100721.19
2022-08-10T03:31:56.525Z,100724.75
2022-08-10T03:36:58.358Z,100728.63
2022-08-10T03:42:03.688Z,100737.91
2022-08-10T03:47:15.951Z,100734.53
2022-08-10T03:52:19.242Z,100735.06
2022-08-10T03:57:22.063Z,100745.38
2022-08-10T04:02:42.133Z,100742.47
2022-08-10T04:07:46.310Z,100745.00
2022-08-10T04:12:47.957Z,100750.03
2022-08-10T04:17:57.213Z,100749.34
2022-08-10T04:23:20.005Z,100756.44
2022-08-10T04:28:22.320Z,100761.91
2022-08-10T04:33:26.254Z,100766.25
2022-08-10T04:38:31.321Z,100766.91
2022-08-10T04:43:33.341Z,100763.78
2022-08-10T04:48:40.748Z,100765.56
2022-08-10T04:54:03.992Z,100775.84
2022-08-10T04:59:10.118Z,100772.41
2022-08-10T05:04:37.516Z,100785.50
2022-08-10T05:09:33.413Z,100774.25
2022-08-10T05:14:55.167Z,100783.72
2022-08-10T05:20:05.073Z,100780.19
2022-08-10T05:25:10.249Z,100764.59
2022-08-10T05:30:15.739Z,100786.97
2022-08-10T05:35:17.486Z,100781.47
2022-08-10T05:40:19.565Z,100778.13
2022-08-10T05:45:24.873Z,100776.41
2022-08-10T05:50:31.058Z,100771.84
2022-08-10T05:55:33.125Z,100772.06
2022-08-10T06:00:40.765Z,100779.78
2022-08-10T06:05:47.773Z,100776.25
2022-08-10T06:12:26.979Z,100779.47
2022-08-10T06:16:15.986Z,100781.25
2022-08-10T06:21:19.377Z,100771.13
2022-08-10T06:26:21.841Z,100771.16
2022-08-10T06:31:26.203Z,100764.56
2022-08-10T06:36:30.199Z,100765.38
2022-08-10T06:41:57.851Z,100772.34
2022-08-10T06:47:04.985Z,100765.16
2022-08-10T06:52:18.096Z,100770.78
2022-08-10T06:57:24.829Z,100768.69
2022-08-10T07:02:33.763Z,100774.47
2022-08-10T07:07:38.892Z,100768.56
2022-08-10T07:12:41.180Z,100770.22
2022-08-10T07:17:45.038Z,100765.81
2022-08-10T07:23:01.677Z,100766.91
2022-08-10T07:28:15.602Z,100760.81
2022-08-10T07:33:19.377Z,100762.31
2022-08-10T07:38:27.077Z,100762.78
2022-08-10T07:43:35.577Z,100763.31
2022-08-10T07:48:42.488Z,100761.97
2022-08-10T07:53:50.389Z,100755.63
2022-08-10T07:58:59.678Z,100747.16
2022-08-10T08:04:05.286Z,100749.63
2022-08-10T08:09:12.825Z,100737.53
2022-08-10T08:14:15.753Z,100735.16
2022-08-10T08:19:38.033Z,100722.28
2022-08-10T08:24:42.342Z,100720.97
2022-08-10T08:29:48.193Z,100720.03
2022-08-10T08:34:54.623Z,100720.44
2022-08-10T08:39:56.905Z,100733.13
2022-08-10T08:45:36.015Z,100720.75
2022-08-10T08:50:57.774Z,100713.16
2022-08-10T08:56:22.086Z,100702.16
2022-08-10T09:01:37.953Z,100700.69
2022-08-10T09:07:39.503Z,100702.56
2022-08-10T09:12:48.049Z,100702.94
2022-08-10T09:18:16.361Z,100688.75
2022-08-10T09:24:01.933Z,100688.09
2022-08-10T09:29:12.342Z,100689.03
2022-08-10T09:36:24.978Z,100676.06
2022-08-10T09:40:57.095Z,100673.69
2022-08-10T09:45:43.656Z,100667.13
2022-08-10T09:51:43.580Z,100660.44
2022-08-10T09:57:12.017Z,100665.69
2022-08-10T10:02:55.027Z,100658.91
2022-08-10T10:08:22.614Z,100661.84
2022-08-10T10:13:50.007Z,100657.34
2022-08-10T10:19:15.446Z,100645.47
2022-08-10T10:24:25.074Z,100633.91
2022-08-10T10:29:57.008Z,100627.03
2022-08-10T10:35:16.606Z,100630.19
2022-08-10T10:40:21.279Z,100624.69
2022-08-10T10:45:36.860Z,100625.03
2022-08-10T10:50:59.286Z,100627.28
2022-08-10T10:56:14.841Z,100619.78
2022-08-10T11:01:44.674Z,100627.94
2022-08-10T11:07:05.378Z,100623.16
2022-08-10T11:12:19.908Z,100623.53
2022-08-10T11:17:38.930Z,100621.84
2022-08-10T11:22:59.526Z,100621.00
2022-08-10T11:28:04.253Z,100618.69
2022-08-10T11:33:30.729Z,100619.50
2022-08-10T11:39:13.576Z,100616.94
2022-08-10T11:44:33.597Z,100607.41
2022-08-10T11:49:55.636Z,100609.44
2022-08-10T11:55:03.077Z,100601.53
2022-08-10T12:00:07.666Z,100588.75
2022-08-10T12:05:11.621Z,100588.97
2022-08-10T12:10:14.660Z,100588.75
2022-08-10T12:15:24.529Z,100580.97
2022-08-10T12:20:37.575Z,100582.81
2022-08-10T12:26:07.546Z,100575.44
2022-08-10T12:31:12.293Z,100573.41
2022-08-10T12:36:22.770Z,100570.72
2022-08-10T12:41:44.408Z,100557.28
2022-08-10T12:47:00.276Z,100561.09
2022-08-10T12:52:23.734Z,100551.03
2022-08-10T12:57:26.483Z,100535.50
2022-08-10T13:02:31.465Z,100539.41
2022-08-10T13:08:24.783Z,100532.50
2022-08-10T13:13:02.586Z,100521.44
2022-08-10T13:18:19.031Z,100525.25
2022-08-10T13:23:25.097Z,100516.84
2022-08-10T13:28:49.745Z,100507.34
2022-08-10T13:34:38.978Z,100510.31
2022-08-10T13:39:25.460Z,100507.34
2022-08-10T13:44:46.879Z,100503.50
2022-08-10T13:49:54.418Z,100501.13
2022-08-10T13:54:59.141Z,100498.63
2022-08-10T14:00:35.505Z,100491.09
2022-08-10T14:05:31.090Z,100491.84
2022-08-10T14:11:09.253Z,100488.22
2022-08-10T14:16:07.892Z,100484.53
2022-08-10T14:21:09.913Z,100465.81
2022-08-10T14:26:16.078Z,100465.50
2022-08-10T14:31:22.322Z,100459.41
2022-08-10T14:36:39.901Z,100467.47
2022-08-10T14:42:02.974Z,100459.72
2022-08-10T14:47:54.194Z,100449.53
2022-08-10T14:52:27.838Z,100454.88
2022-08-10T14:58:19.000Z,100443.19
2022-08-10T15:02:58.035Z,100441.84
2022-08-10T15:08:00.397Z,100443.53
2022-08-10T15:13:07.126Z,100431.34
2022-08-10T15:18:30.069Z,100442.19
2022-08-10T15:24:04.616Z,100446.00
2022-08-10T15:29:22.145Z,100439.06
2022-08-10T15:34:44.656Z,100429.59
2022-08-10T15:40:25.174Z,100436.31
2022-08-10T15:45:18.083Z,100431.09
2022-08-10T15:50:21.957Z,100437.53
2022-08-10T15:55:42.995Z,100430.25
2022-08-10T16:00:59.501Z,100429.22
2022-08-10T16:06:03.501Z,100418.06
2022-08-10T16:11:11.706Z,100411.88
2022-08-10T16:16:15.763Z,100414.78
2022-08-10T16:21:21.164Z,100411.28
2022-08-10T16:26:28.606Z,100407.66
2022-08-10T16:31:35.655Z,100397.97
2022-08-10T16:36:49.767Z,100391.84
2022-08-10T16:42:03.017Z,100394.91
2022-08-10T16:47:09.912Z,100386.59
2022-08-10T16:52:14.462Z,100389.09
2022-08-10T16:57:16.602Z,100384.38
2022-08-10T17:02:20.416Z,100390.44
2022-08-10T17:07:30.695Z,100382.28
2022-08-10T17:12:34.619Z,100378.88
2022-08-10T17:17:44.341Z,100382.75
2022-08-10T17:22:50.476Z,100388.19
2022-08-10T17:28:13.731Z,100385.81
2022-08-10T17:33:21.597Z,100393.78
2022-08-10T17:38:25.966Z,100393.69
2022-08-10T17:43:58.597Z,100393.31
2022-08-10T17:48:53.395Z,100388.78
2022-08-10T17:54:00.563Z,100390.56
2022-08-10T17:59:11.948Z,100398.75
2022-08-10T18:04:21.054Z,100386.63
2022-08-10T18:09:39.210Z,100393.66
2022-08-10T18:14:44.741Z,100395.84
2022-08-10T18:19:50.967Z,100399.88
2022-08-10T18:24:56.055Z,100396.44
2022-08-10T18:30:03.291Z,100410.84
2022-08-10T18:35:08.306Z,100410.53
2022-08-10T18:40:11.270Z,100417.97
2022-08-10T18:45:21.221Z,100410.72
2022-08-10T18:50:28.700Z,100426.72
2022-08-10T18:55:35.482Z,100435.91
2022-08-10T19:01:27.220Z,100430.78
2022-08-10T19:06:49.366Z,100441.13
2022-08-10T19:12:29.834Z,100445.81
2022-08-10T19:18:01.248Z,100444.53
2022-08-10T19:23:33.207Z,100441.91
2022-08-10T19:28:59.403Z,100435.06
2022-08-10T19:34:22.361Z,100447.72
2022-08-10T19:39:41.976Z,100450.53
2022-08-10T19:45:06.381Z,100451.25
2022-08-10T19:50:13.844Z,100443.16
2022-08-10T19:55:39.696Z,100452.41
2022-08-10T20:00:55.817Z,100448.44
2022-08-10T20:06:19.594Z,100450.75
2022-08-10T20:11:56.845Z,100450.28
2022-08-10T20:17:23.173Z,100455.31
2022-08-10T20:22:45.233Z,100455.53
2022-08-10T20:28:22.188Z,100460.72
2022-08-10T20:33:38.191Z,100450.81
2022-08-10T20:39:09.790Z,100446.34
2022-08-10T20:44:39.358Z,100457.56
2022-08-10T20:49:55.721Z,100453.69
2022-08-10T20:55:08.507Z,100457.09
2022-08-10T21:00:18.514Z,100448.09
2022-08-10T21:05:43.507Z,100457.56
2022-08-10T21:11:11.558Z,100464.25
2022-08-10T21:16:47.257Z,100468.69
2022-08-10T21:22:03.529Z,100477.47
2022-08-10T21:27:39.888Z,100477.09
2022-08-10T21:32:56.638Z,100473.28
2022-08-10T21:38:07.970Z,100479.59
2022-08-10T21:49:51.505Z,100481.66
2022-08-10T21:55:19.316Z,100478.19
2022-08-10T22:00:39.688Z,100474.59
2022-08-10T22:06:07.111Z,100485.81
2022-08-10T22:11:37.529Z,100496.59
2022-08-10T22:17:04.352Z,100491.97
2022-08-10T22:22:28.650Z,100491.38
2022-08-10T22:27:54.563Z,100483.22
2022-08-10T22:31:25.187Z,100476.03
2022-08-10T22:33:39.462Z,100485.53
2022-08-10T22:39:16.720Z,100486.53
2022-08-10T22:45:01.454Z,100473.28
2022-08-10T22:50:08.080Z,100478.28
2022-08-10T22:55:40.074Z,100479.84
2022-08-10T23:00:42.203Z,100485.44
2022-08-10T23:06:08.641Z,100486.28
2022-08-10T23:11:24.949Z,100492.38
2022-08-10T23:16:47.756Z,100496.88
2022-08-10T23:22:07.376Z,100490.31
2022-08-10T23:27:39.041Z,100479.13
2022-08-10T23:32:38.950Z,100482.59
2022-08-10T23:37:42.248Z,100484.84
2022-08-10T23:42:50.240Z,100488.66
2022-08-10T23:47:56.262Z,100493.25
2022-08-10T23:53:01.638Z,100480.88
2022-08-10T23:58:09.501Z,100477.19
